createdAt,value
2022-08-03T00:01:42.546Z,6.25
2022-08-03T00:04:11.722Z,5.18
2022-08-03T00:06:39.718Z,4.22
2022-08-03T00:09:07.479Z,6.57
2022-08-03T00:11:35.426Z,7.78
2022-08-03T00:14:03.182Z,7.28
2022-08-03T00:16:32.232Z,7.35
2022-08-03T00:19:00.758Z,5.25
2022-08-03T00:21:30.202Z,5.18
2022-08-03T00:23:57.846Z,5.35
2022-08-03T00:26:27.772Z,5.32
2022-08-03T00:28:55.429Z,6.70
2022-08-03T00:31:39.947Z,4.53
2022-08-03T00:34:12.527Z,4.25
2022-08-03T00:36:40.422Z,3.97
2022-08-03T00:39:08.129Z,7.38
2022-08-03T00:41:35.814Z,5.75
2022-08-03T00:44:03.455Z,5.30
2022-08-03T00:46:31.170Z,7.95
2022-08-03T00:48:59.006Z,6.88
2022-08-03T00:51:28.947Z,8.00
2022-08-03T00:53:56.597Z,11.13
2022-08-03T00:56:24.297Z,6.32
2022-08-03T00:58:52.980Z,8.80
2022-08-03T01:01:20.662Z,7.07
2022-08-03T01:03:48.333Z,7.95
2022-08-03T01:06:19.609Z,8.00
2022-08-03T01:08:55.451Z,5.78
2022-08-03T01:11:33.352Z,5.65
2022-08-03T01:14:18.977Z,5.75
2022-08-03T01:16:56.017Z,7.68
2022-08-03T01:19:43.671Z,6.03
2022-08-03T01:22:25.669Z,7.82
2022-08-03T01:25:03.938Z,6.38
2022-08-03T01:27:44.401Z,5.63
2022-08-03T01:30:13.877Z,11.45
2022-08-03T01:32:58.180Z,9.13
2022-08-03T01:35:36.693Z,6.90
2022-08-03T01:38:14.797Z,9.38
2022-08-03T01:40:45.456Z,8.13
2022-08-03T01:44:26.629Z,6.10
2022-08-03T01:46:08.962Z,8.10
2022-08-03T01:48:38.826Z,7.38
2022-08-03T01:51:07.674Z,7.90
2022-08-03T01:53:38.000Z,6.35
2022-08-03T01:56:07.649Z,6.18
2022-08-03T01:58:37.413Z,6.72
2022-08-03T02:01:08.030Z,7.07
2022-08-03T02:03:38.296Z,9.80
2022-08-03T02:07:00.438Z,8.00
2022-08-03T02:09:16.013Z,9.15
2022-08-03T02:11:45.275Z,7.82
2022-08-03T02:14:14.269Z,13.32
2022-08-03T02:16:45.708Z,7.15
2022-08-03T02:22:11.350Z,12.98
2022-08-03T02:24:39.659Z,8.48
2022-08-03T02:27:24.291Z,8.45
2022-08-03T02:29:57.285Z,11.02
2022-08-03T02:32:32.325Z,10.32
2022-08-03T02:35:01.991Z,9.57
2022-08-03T02:37:32.598Z,9.93
2022-08-03T02:40:04.293Z,8.98
2022-08-03T02:42:34.531Z,8.07
2022-08-03T02:45:06.590Z,8.65
2022-08-03T02:47:54.099Z,9.80
2022-08-03T02:50:24.564Z,8.88
2022-08-03T02:52:54.036Z,10.57
2022-08-03T02:55:23.632Z,11.80
2022-08-03T02:57:52.717Z,7.80
2022-08-03T03:00:27.660Z,11.20
2022-08-03T03:02:58.497Z,10.88
2022-08-03T03:05:55.712Z,10.10
2022-08-03T03:08:18.504Z,8.15
2022-08-03T03:10:49.251Z,7.50
2022-08-03T03:13:23.731Z,8.25
2022-08-03T03:15:53.407Z,8.88
2022-08-03T03:18:23.178Z,9.45
2022-08-03T03:20:52.549Z,7.63
2022-08-03T03:23:21.995Z,6.93
2022-08-03T03:25:50.745Z,9.80
2022-08-03T03:28:18.737Z,6.00
2022-08-03T03:30:53.108Z,7.45
2022-08-03T03:33:23.202Z,6.72
2022-08-03T03:35:52.848Z,7.75
2022-08-03T03:38:21.339Z,8.15
2022-08-03T03:40:49.652Z,7.80
2022-08-03T03:43:18.811Z,10.10
2022-08-03T03:45:47.031Z,6.57
2022-08-03T03:48:15.348Z,10.50
2022-08-03T03:50:44.907Z,7.90
2022-08-03T03:53:14.355Z,9.52
2022-08-03T03:55:59.253Z,7.85
2022-08-03T03:58:32.004Z,8.45
2022-08-03T04:00:59.936Z,10.02
2022-08-03T04:03:27.703Z,6.28
2022-08-03T04:06:14.633Z,7.70
2022-08-03T04:09:00.002Z,13.70
2022-08-03T04:11:32.036Z,8.23
2022-08-03T04:14:04.549Z,8.40
2022-08-03T04:16:38.017Z,6.53
2022-08-03T04:19:11.465Z,9.38
2022-08-03T04:21:44.490Z,5.95
2022-08-03T04:24:14.554Z,7.97
2022-08-03T04:26:44.348Z,9.25
2022-08-03T04:29:13.150Z,9.27
2022-08-03T04:31:42.970Z,10.65
2022-08-03T04:34:10.981Z,6.38
2022-08-03T04:36:48.881Z,7.85
2022-08-03T04:39:20.933Z,6.40
2022-08-03T04:42:07.373Z,7.15
2022-08-03T04:44:40.373Z,8.25
2022-08-03T04:47:08.349Z,7.93
2022-08-03T04:49:37.900Z,11.05
2022-08-03T04:52:10.083Z,7.07
2022-08-03T04:54:41.868Z,5.70
2022-08-03T04:57:09.673Z,6.68
2022-08-03T04:59:39.118Z,8.98
2022-08-03T05:02:08.841Z,6.18
2022-08-03T05:04:38.058Z,7.35
2022-08-03T05:07:11.639Z,6.82
2022-08-03T05:09:50.695Z,6.28
2022-08-03T05:12:20.649Z,7.20
2022-08-03T05:14:48.283Z,5.63
2022-08-03T05:17:16.019Z,5.20
2022-08-03T05:19:43.775Z,6.43
2022-08-03T05:22:13.329Z,4.75
2022-08-03T05:24:41.177Z,6.60
2022-08-03T05:27:09.127Z,4.97
2022-08-03T05:29:39.435Z,4.60
2022-08-03T05:32:08.451Z,5.18
2022-08-03T05:34:36.452Z,6.93
2022-08-03T05:37:04.279Z,6.65
2022-08-03T05:39:33.375Z,5.88
2022-08-03T05:42:01.394Z,4.13
2022-08-03T05:44:30.589Z,3.00
2022-08-03T05:46:58.403Z,4.20
2022-08-03T05:49:26.345Z,2.67
2022-08-03T05:52:00.200Z,5.22
2022-08-03T05:54:56.031Z,6.70
2022-08-03T05:57:25.457Z,7.50
2022-08-03T05:59:58.615Z,7.80
2022-08-03T06:02:26.901Z,5.13
2022-08-03T06:04:55.652Z,4.43
2022-08-03T06:07:24.329Z,3.20
2022-08-03T06:10:35.382Z,3.72
2022-08-03T06:12:41.434Z,4.47
2022-08-03T06:15:11.249Z,4.15
2022-08-03T06:17:46.173Z,2.70
2022-08-03T06:20:14.024Z,3.85
2022-08-03T06:22:41.759Z,2.75
2022-08-03T06:25:21.287Z,3.03
2022-08-03T06:27:49.363Z,4.53
2022-08-03T06:30:21.007Z,3.72
2022-08-03T06:32:51.667Z,3.55
2022-08-03T06:35:20.404Z,3.67
2022-08-03T06:37:49.826Z,4.53
2022-08-03T06:40:24.645Z,3.03
2022-08-03T06:42:52.462Z,3.13
2022-08-03T06:45:20.183Z,2.63
2022-08-03T06:47:47.876Z,2.65
2022-08-03T06:50:17.826Z,3.55
2022-08-03T06:52:46.827Z,3.28
2022-08-03T06:55:17.069Z,2.55
2022-08-03T06:57:46.520Z,2.50
2022-08-03T07:00:15.257Z,3.63
2022-08-03T07:02:42.899Z,2.85
2022-08-03T07:05:11.244Z,2.60
2022-08-03T07:07:39.316Z,1.73
2022-08-03T07:10:08.884Z,3.25
2022-08-03T07:12:37.078Z,3.08
2022-08-03T07:15:55.222Z,2.35
2022-08-03T07:18:09.812Z,3.22
2022-08-03T07:20:37.549Z,3.10
2022-08-03T07:23:05.502Z,5.65
2022-08-03T07:25:33.659Z,2.83
2022-08-03T07:28:07.595Z,4.28
2022-08-03T07:30:42.589Z,5.40
2022-08-03T07:33:10.395Z,2.92
2022-08-03T07:35:38.091Z,3.03
2022-08-03T07:38:05.804Z,1.55
2022-08-03T07:40:33.622Z,2.40
2022-08-03T07:43:03.239Z,3.10
2022-08-03T07:45:31.440Z,3.85
2022-08-03T07:48:00.667Z,3.95
2022-08-03T07:50:28.674Z,3.53
2022-08-03T07:52:57.876Z,2.75
2022-08-03T07:55:27.913Z,3.78
2022-08-03T07:58:07.600Z,2.38
2022-08-03T08:00:35.474Z,3.72
2022-08-03T08:03:05.381Z,1.83
2022-08-03T08:05:33.090Z,1.85
2022-08-03T08:08:01.493Z,4.90
2022-08-03T08:10:30.817Z,3.13
2022-08-03T08:13:03.498Z,3.30
2022-08-03T08:15:32.726Z,1.88
2022-08-03T08:18:05.327Z,2.03
2022-08-03T08:23:41.921Z,2.53
2022-08-03T08:26:11.282Z,3.90
2022-08-03T08:28:39.585Z,3.90
2022-08-03T08:31:10.695Z,1.33
2022-08-03T08:36:27.608Z,3.38
2022-08-03T08:38:55.320Z,3.75
2022-08-03T08:41:56.416Z,3.38
2022-08-03T08:44:26.000Z,5.70
2022-08-03T08:46:54.863Z,3.63
2022-08-03T08:49:29.817Z,2.53
2022-08-03T08:52:01.346Z,3.47
2022-08-03T08:54:32.521Z,3.38
2022-08-03T08:57:06.657Z,2.17
2022-08-03T08:59:48.852Z,5.80
2022-08-03T09:02:17.623Z,3.40
2022-08-03T09:04:48.852Z,1.98
2022-08-03T09:07:20.442Z,3.78
2022-08-03T09:10:11.513Z,1.65
2022-08-03T09:12:42.202Z,4.03
2022-08-03T09:15:22.345Z,2.95
2022-08-03T09:17:51.505Z,2.97
2022-08-03T09:20:22.701Z,3.85
2022-08-03T09:23:24.955Z,2.67
2022-08-03T09:26:02.156Z,2.38
2022-08-03T09:29:00.204Z,2.92
2022-08-03T09:31:32.732Z,1.60
2022-08-03T09:34:08.002Z,5.38
2022-08-03T09:36:43.614Z,2.92
2022-08-03T09:39:19.698Z,2.35
2022-08-03T09:42:18.685Z,2.45
2022-08-03T09:44:49.742Z,4.65
2022-08-03T09:47:33.458Z,5.88
2022-08-03T09:50:07.976Z,5.43
2022-08-03T09:52:58.046Z,2.28
2022-08-03T09:56:34.032Z,3.65
2022-08-03T09:58:22.988Z,4.65
2022-08-03T10:00:55.897Z,4.38
2022-08-03T10:03:27.688Z,7.05
2022-08-03T10:06:00.956Z,2.25
2022-08-03T10:08:33.023Z,3.05
2022-08-03T10:11:04.976Z,3.28
2022-08-03T10:13:33.702Z,1.83
2022-08-03T10:16:21.404Z,2.55
2022-08-03T10:18:49.151Z,3.42
2022-08-03T10:21:20.847Z,3.70
2022-08-03T10:23:49.602Z,2.63
2022-08-03T10:26:21.351Z,3.63
2022-08-03T10:28:54.093Z,4.05
2022-08-03T10:31:25.447Z,1.58
2022-08-03T10:33:58.549Z,3.80
2022-08-03T10:36:31.653Z,1.65
2022-08-03T10:39:01.389Z,4.93
2022-08-03T10:41:34.032Z,3.15
2022-08-03T10:44:06.733Z,3.22
2022-08-03T10:46:38.384Z,1.95
2022-08-03T10:49:10.064Z,4.97
2022-08-03T10:51:37.824Z,1.95
2022-08-03T10:54:05.547Z,3.15
2022-08-03T10:57:02.639Z,4.35
2022-08-03T11:00:03.829Z,2.00
2022-08-03T11:03:07.311Z,3.25
2022-08-03T11:05:37.829Z,4.20
2022-08-03T11:08:25.716Z,2.13
2022-08-03T11:10:55.417Z,2.67
2022-08-03T11:13:28.210Z,2.30
2022-08-03T11:16:00.001Z,3.03
2022-08-03T11:18:30.561Z,4.13
2022-08-03T11:20:59.671Z,3.80
2022-08-03T11:24:02.704Z,5.88
2022-08-03T11:26:31.600Z,4.63
2022-08-03T11:29:30.823Z,2.40
2022-08-03T11:31:58.754Z,2.15
2022-08-03T11:34:27.299Z,1.88
2022-08-03T11:37:29.910Z,1.85
2022-08-03T11:40:02.898Z,1.77
2022-08-03T11:42:41.391Z,2.47
2022-08-03T11:45:11.262Z,2.25
2022-08-03T11:47:50.098Z,3.85
2022-08-03T11:50:19.929Z,2.70
2022-08-03T11:52:48.039Z,1.83
2022-08-03T11:55:18.878Z,3.92
2022-08-03T11:59:10.651Z,1.40
2022-08-03T12:00:36.317Z,2.67
2022-08-03T12:03:07.543Z,2.03
2022-08-03T12:05:37.020Z,1.50
2022-08-03T12:08:06.826Z,3.15
2022-08-03T12:10:35.838Z,4.25
2022-08-03T12:14:33.013Z,2.83
2022-08-03T12:15:57.592Z,1.83
2022-08-03T12:18:25.719Z,4.18
2022-08-03T12:20:54.601Z,4.30
2022-08-03T12:23:22.378Z,3.05
2022-08-03T12:25:50.131Z,6.22
2022-08-03T12:28:36.950Z,3.33
2022-08-03T12:31:09.643Z,1.20
2022-08-03T12:33:56.530Z,1.35
2022-08-03T12:36:24.345Z,2.97
2022-08-03T12:38:57.123Z,3.75
2022-08-03T12:41:31.080Z,1.85
2022-08-03T12:43:59.637Z,1.60
2022-08-03T12:46:34.312Z,3.70
2022-08-03T12:49:04.841Z,3.05
2022-08-03T12:51:34.675Z,2.47
2022-08-03T12:54:02.924Z,2.38
2022-08-03T12:56:30.942Z,4.10
2022-08-03T12:58:58.743Z,1.55
2022-08-03T13:01:27.967Z,2.70
2022-08-03T13:03:56.993Z,2.67
2022-08-03T13:06:26.513Z,1.85
2022-08-03T13:09:06.094Z,2.85
2022-08-03T13:11:57.749Z,3.63
2022-08-03T13:14:24.085Z,2.47
2022-08-03T13:16:52.273Z,2.22
2022-08-03T13:19:21.289Z,1.85
2022-08-03T13:22:03.214Z,1.65
2022-08-03T13:24:33.548Z,1.63
2022-08-03T13:27:22.541Z,2.85
2022-08-03T13:29:50.674Z,1.30
2022-08-03T13:32:18.393Z,1.92
2022-08-03T13:34:47.402Z,3.22
2022-08-03T13:37:15.756Z,2.13
2022-08-03T13:39:57.578Z,3.28
2022-08-03T13:42:28.525Z,2.08
2022-08-03T13:44:56.179Z,1.80
2022-08-03T13:47:23.813Z,1.52
2022-08-03T13:50:00.094Z,1.92
2022-08-03T13:52:29.939Z,1.60
2022-08-03T13:54:57.638Z,2.80
2022-08-03T13:58:03.394Z,3.95
2022-08-03T14:00:26.166Z,2.90
2022-08-03T14:03:14.815Z,3.80
2022-08-03T14:05:46.240Z,2.75
2022-08-03T14:08:13.952Z,3.90
2022-08-03T14:10:43.945Z,3.13
2022-08-03T14:13:12.647Z,3.47
2022-08-03T14:15:50.057Z,2.53
2022-08-03T14:18:28.404Z,1.90
2022-08-03T14:21:03.431Z,1.60
2022-08-03T14:23:33.392Z,2.10
2022-08-03T14:26:03.232Z,2.22
2022-08-03T14:28:33.994Z,2.95
2022-08-03T14:31:08.481Z,1.77
2022-08-03T14:33:58.470Z,3.05
2022-08-03T14:36:29.488Z,3.10
2022-08-03T14:39:01.411Z,1.17
2022-08-03T14:41:29.413Z,2.50
2022-08-03T14:44:01.251Z,2.00
2022-08-03T14:46:30.444Z,3.40
2022-08-03T14:50:27.803Z,1.50
2022-08-03T14:51:53.841Z,2.50
2022-08-03T14:54:22.299Z,1.73
2022-08-03T14:56:49.995Z,1.60
2022-08-03T14:59:17.629Z,3.78
2022-08-03T15:02:06.041Z,2.83
2022-08-03T15:04:33.238Z,1.98
2022-08-03T15:07:09.135Z,2.03
2022-08-03T15:09:38.587Z,1.60
2022-08-03T15:12:07.145Z,2.85
2022-08-03T15:14:34.988Z,0.95
2022-08-03T15:17:08.023Z,2.78
2022-08-03T15:20:01.364Z,2.08
2022-08-03T15:22:35.231Z,3.05
2022-08-03T15:26:28.281Z,2.65
2022-08-03T15:28:02.810Z,2.20
2022-08-03T15:30:40.838Z,2.30
2022-08-03T15:33:08.884Z,2.22
2022-08-03T15:35:38.182Z,1.83
2022-08-03T15:38:09.656Z,1.40
2022-08-03T15:40:37.858Z,5.18
2022-08-03T15:43:05.693Z,2.47
2022-08-03T15:45:36.113Z,1.50
2022-08-03T15:48:04.371Z,1.88
2022-08-03T15:50:32.022Z,2.72
2022-08-03T15:52:59.943Z,2.13
2022-08-03T15:55:29.025Z,4.05
2022-08-03T15:59:09.686Z,2.28
2022-08-03T16:00:44.839Z,2.92
2022-08-03T16:03:13.614Z,5.70
2022-08-03T16:05:41.374Z,2.53
2022-08-03T16:08:13.874Z,1.50
2022-08-03T16:10:48.026Z,3.05
2022-08-03T16:13:21.357Z,2.30
2022-08-03T16:16:09.494Z,3.92
2022-08-03T16:18:39.232Z,1.77
2022-08-03T16:21:06.887Z,2.05
2022-08-03T16:23:42.171Z,4.88
2022-08-03T16:26:16.190Z,4.80
2022-08-03T16:28:43.987Z,2.35
2022-08-03T16:31:11.786Z,1.55
2022-08-03T16:33:40.341Z,3.55
2022-08-03T16:36:08.183Z,3.10
2022-08-03T16:38:35.899Z,3.95
2022-08-03T16:41:04.868Z,2.20
2022-08-03T16:43:35.701Z,2.65
2022-08-03T16:46:03.370Z,1.30
2022-08-03T16:48:31.071Z,1.88
2022-08-03T16:50:58.754Z,1.10
2022-08-03T16:53:33.590Z,2.97
2022-08-03T16:56:16.700Z,2.05
2022-08-03T16:58:47.010Z,2.20
2022-08-03T17:01:21.947Z,2.85
2022-08-03T17:04:01.793Z,1.40
2022-08-03T17:06:34.456Z,1.50
2022-08-03T17:09:09.916Z,1.30
2022-08-03T17:11:47.593Z,1.75
2022-08-03T17:14:21.964Z,2.35
2022-08-03T17:16:52.538Z,1.35
2022-08-03T17:19:23.303Z,1.40
2022-08-03T17:21:58.260Z,2.33
2022-08-03T17:24:33.165Z,1.48
2022-08-03T17:27:03.416Z,1.02
2022-08-03T17:29:34.873Z,1.17
2022-08-03T17:32:09.495Z,3.15
2022-08-03T17:34:45.744Z,1.95
2022-08-03T17:37:27.171Z,2.55
2022-08-03T17:40:10.047Z,1.00
2022-08-03T17:42:43.183Z,1.83
2022-08-03T17:45:15.538Z,1.77
2022-08-03T17:47:43.910Z,2.95
2022-08-03T17:50:25.202Z,1.40
2022-08-03T17:53:06.732Z,1.70
2022-08-03T17:55:57.714Z,1.25
2022-08-03T17:58:39.645Z,1.23
2022-08-03T18:02:00.245Z,1.23
2022-08-03T18:07:12.572Z,2.80
2022-08-03T18:10:05.145Z,1.77
2022-08-03T18:12:45.049Z,2.05
2022-08-03T18:15:21.329Z,1.88
2022-08-03T18:17:55.377Z,1.35
2022-08-03T18:20:32.695Z,2.60
2022-08-03T18:23:06.528Z,2.78
2022-08-03T18:25:45.740Z,1.25
2022-08-03T18:28:18.687Z,1.75
2022-08-03T18:30:54.423Z,4.15
2022-08-03T18:34:19.721Z,1.35
2022-08-03T18:36:18.538Z,1.52
2022-08-03T18:38:53.958Z,1.85
2022-08-03T18:41:33.746Z,1.80
2022-08-03T18:47:07.208Z,2.42
2022-08-03T18:49:53.801Z,2.47
2022-08-03T18:52:27.988Z,2.38
2022-08-03T18:58:01.127Z,3.55
2022-08-03T19:00:54.429Z,2.78
2022-08-03T19:03:25.376Z,1.77
2022-08-03T19:09:09.542Z,2.15
2022-08-03T19:12:12.718Z,2.13
2022-08-03T19:14:35.961Z,2.65
2022-08-03T19:17:11.899Z,3.05
2022-08-03T19:19:45.335Z,3.20
2022-08-03T19:22:15.974Z,3.97
2022-08-03T19:24:49.504Z,3.38
2022-08-03T19:27:17.823Z,2.58
2022-08-03T19:29:58.823Z,2.50
2022-08-03T19:32:29.980Z,2.72
2022-08-03T19:37:40.438Z,2.80
2022-08-03T19:40:24.065Z,4.28
2022-08-03T19:43:01.661Z,4.20
2022-08-03T19:46:04.964Z,2.33
2022-08-03T19:48:36.143Z,4.15
2022-08-03T19:51:12.406Z,3.20
2022-08-03T19:53:51.615Z,3.58
2022-08-03T19:56:24.062Z,4.80
2022-08-03T19:58:57.314Z,5.63
2022-08-03T20:01:25.484Z,4.18
2022-08-03T20:03:56.310Z,3.42
2022-08-03T20:06:27.332Z,3.83
2022-08-03T20:08:56.812Z,4.97
2022-08-03T20:11:28.641Z,5.38
2022-08-03T20:13:58.146Z,4.25
2022-08-03T20:16:27.138Z,2.78
2022-08-03T20:18:56.562Z,5.28
2022-08-03T20:21:29.155Z,7.25
2022-08-03T20:24:23.315Z,4.45
2022-08-03T20:26:54.956Z,4.28
2022-08-03T20:30:04.989Z,4.85
2022-08-03T20:32:24.444Z,4.22
2022-08-03T20:34:52.891Z,4.32
2022-08-03T20:37:21.025Z,6.85
2022-08-03T20:39:50.513Z,8.95
2022-08-03T20:42:21.190Z,6.13
2022-08-03T20:45:04.561Z,5.82
2022-08-03T20:47:35.690Z,6.05
2022-08-03T20:50:04.599Z,3.63
2022-08-03T20:52:37.139Z,6.18
2022-08-03T20:55:20.170Z,4.35
2022-08-03T20:57:51.606Z,5.20
2022-08-03T21:00:22.078Z,6.53
2022-08-03T21:02:50.135Z,6.88
2022-08-03T21:05:17.806Z,3.92
2022-08-03T21:08:06.917Z,7.63
2022-08-03T21:10:42.128Z,4.10
2022-08-03T21:13:05.029Z,2.67
2022-08-03T21:13:05.314Z,2.35
2022-08-03T21:13:10.446Z,2.38
2022-08-03T21:13:11.154Z,2.65
2022-08-03T21:13:18.874Z,4.60
2022-08-03T21:16:13.225Z,5.43
2022-08-03T21:18:43.623Z,5.60
2022-08-03T21:21:14.799Z,3.58
2022-08-03T21:23:48.669Z,4.65
2022-08-03T21:26:19.660Z,5.97
2022-08-03T21:28:48.783Z,3.80
2022-08-03T21:31:24.671Z,5.70
2022-08-03T21:33:56.429Z,3.63
2022-08-03T21:36:25.450Z,4.32
2022-08-03T21:38:55.943Z,4.80
2022-08-03T21:41:26.712Z,5.97
2022-08-03T21:43:54.600Z,4.50
2022-08-03T21:46:23.208Z,4.97
2022-08-03T21:48:56.398Z,4.00
2022-08-03T21:51:44.178Z,4.78
2022-08-03T21:54:13.205Z,3.78
2022-08-03T21:56:44.083Z,6.32
2022-08-03T21:59:18.405Z,6.13
2022-08-03T22:01:48.914Z,6.95
2022-08-03T22:04:50.363Z,8.65
2022-08-03T22:07:09.243Z,5.47
2022-08-03T22:09:37.655Z,6.07
2022-08-03T22:12:07.494Z,4.43
2022-08-03T22:14:35.238Z,7.05
2022-08-03T22:17:06.159Z,4.68
2022-08-03T22:19:34.219Z,5.10
2022-08-03T22:22:04.515Z,7.32
2022-08-03T22:24:33.012Z,6.18
2022-08-03T22:27:21.055Z,6.35
2022-08-03T22:29:51.214Z,5.93
2022-08-03T22:32:18.998Z,7.13
2022-08-03T22:34:48.585Z,7.25
2022-08-03T22:37:17.955Z,6.13
2022-08-03T22:39:46.134Z,6.30
2022-08-03T22:42:14.439Z,5.95
2022-08-03T22:44:42.175Z,6.57
2022-08-03T22:47:11.661Z,7.30
2022-08-03T22:49:40.200Z,12.85
2022-08-03T22:52:08.905Z,7.55
2022-08-03T22:54:36.648Z,9.30
2022-08-03T22:57:05.117Z,9.98
2022-08-03T22:59:39.004Z,5.32
2022-08-03T23:02:21.132Z,6.82
2022-08-03T23:04:52.118Z,7.35
2022-08-03T23:07:22.967Z,9.35
2022-08-03T23:09:51.240Z,13.55
2022-08-03T23:12:20.918Z,6.72
2022-08-03T23:14:55.044Z,8.05
2022-08-03T23:17:27.339Z,7.00
2022-08-03T23:19:56.312Z,8.40
2022-08-03T23:22:30.150Z,6.80
2022-08-03T23:24:59.678Z,6.35
2022-08-03T23:27:28.733Z,6.00
2022-08-03T23:29:59.602Z,8.18
2022-08-03T23:32:30.358Z,6.03
2022-08-03T23:35:18.141Z,8.25
2022-08-03T23:38:21.718Z,7.00
2022-08-03T23:40:35.075Z,6.25
2022-08-03T23:43:03.686Z,8.68
2022-08-03T23:45:37.498Z,6.68
2022-08-03T23:48:07.175Z,7.45
2022-08-03T23:50:44.393Z,5.20
2022-08-03T23:53:18.129Z,9.55
2022-08-03T23:56:02.107Z,6.40
2022-08-03T23:58:48.281Z,9.02
